createdAt,value
2023-04-30T00:00:39.374Z,102093.53
2023-04-30T00:03:40.992Z,102097.13
2023-04-30T00:06:42.712Z,102101.66
2023-04-30T00:09:44.394Z,102102.66
2023-04-30T00:12:45.945Z,102093.91
2023-04-30T00:15:47.498Z,102087.03
2023-04-30T00:18:49.009Z,102095.09
2023-04-30T00:21:50.680Z,102103.09
2023-04-30T00:24:52.329Z,102109.38
2023-04-30T00:27:53.936Z,102108.56
2023-04-30T00:30:55.487Z,102107.78
2023-04-30T00:33:57.596Z,102117.53
2023-04-30T00:36:59.163Z,102111.44
2023-04-30T00:40:00.692Z,102122.13
2023-04-30T00:43:02.241Z,102116.06
2023-04-30T00:46:05.424Z,102121.47
2023-04-30T00:49:07.339Z,102116.25
2023-04-30T00:52:09.052Z,102117.25
2023-04-30T00:55:13.938Z,102123.53
2023-04-30T00:58:15.990Z,102122.72
2023-04-30T01:01:18.517Z,102132.53
2023-04-30T01:04:20.529Z,102130.91
2023-04-30T01:07:22.294Z,102131.00
2023-04-30T01:10:32.396Z,102139.00
2023-04-30T01:13:40.814Z,102132.94
2023-04-30T01:17:06.705Z,102133.06
2023-04-30T01:20:10.628Z,102136.63
2023-04-30T01:23:30.863Z,102138.44
2023-04-30T01:27:07.789Z,102125.34
2023-04-30T01:30:10.516Z,102125.41
2023-04-30T01:33:13.275Z,102123.69
2023-04-30T01:36:49.609Z,102123.75
2023-04-30T01:40:17.760Z,102129.94
2023-04-30T01:43:54.673Z,102131.78
2023-04-30T01:47:05.660Z,102137.09
2023-04-30T01:50:38.010Z,102131.91
2023-04-30T01:53:46.307Z,102136.31
2023-04-30T01:57:18.259Z,102139.94
2023-04-30T02:00:19.912Z,102146.09
2023-04-30T02:03:21.639Z,102150.53
2023-04-30T02:06:30.393Z,102147.00
2023-04-30T02:09:32.369Z,102146.22
2023-04-30T02:12:34.390Z,102150.66
2023-04-30T02:15:35.943Z,102145.44
2023-04-30T02:18:37.674Z,102154.31
2023-04-30T02:21:39.225Z,102157.00
2023-04-30T02:24:40.818Z,102161.44
2023-04-30T02:27:42.493Z,102150.94
2023-04-30T02:30:44.055Z,102161.47
2023-04-30T02:33:45.766Z,102164.13
2023-04-30T02:36:47.317Z,102175.59
2023-04-30T02:39:49.605Z,102170.31
2023-04-30T02:42:51.190Z,102161.59
2023-04-30T02:45:52.768Z,102160.69
2023-04-30T02:48:54.341Z,102171.28
2023-04-30T02:51:55.933Z,102166.06
2023-04-30T02:54:57.597Z,102166.09
2023-04-30T02:57:59.176Z,102170.50
2023-04-30T03:01:00.777Z,102162.69
2023-04-30T03:04:03.862Z,102168.88
2023-04-30T03:07:06.885Z,102161.84
2023-04-30T03:10:09.384Z,102169.84
2023-04-30T03:13:11.018Z,102165.53
2023-04-30T03:16:12.687Z,102163.81
2023-04-30T03:19:14.345Z,102168.25
2023-04-30T03:22:15.881Z,102173.56
2023-04-30T03:25:17.429Z,102168.31
2023-04-30T03:28:19.268Z,102170.13
2023-04-30T03:31:20.833Z,102166.66
2023-04-30T03:34:22.512Z,102166.69
2023-04-30T03:37:24.118Z,102172.00
2023-04-30T03:40:25.868Z,102179.03
2023-04-30T03:43:27.392Z,102171.19
2023-04-30T03:46:29.037Z,102178.25
2023-04-30T03:49:30.574Z,102177.44
2023-04-30T03:52:33.746Z,102174.88
2023-04-30T03:55:35.731Z,102182.81
2023-04-30T03:58:37.367Z,102183.72
2023-04-30T04:01:39.004Z,102177.63
2023-04-30T04:04:40.604Z,102184.69
2023-04-30T04:07:42.282Z,102175.94
2023-04-30T04:10:44.046Z,102176.81
2023-04-30T04:13:46.004Z,102177.72
2023-04-30T04:16:47.565Z,102172.47
2023-04-30T04:19:49.125Z,102177.75
2023-04-30T04:22:51.022Z,102182.16
2023-04-30T04:25:53.165Z,102185.66
2023-04-30T04:28:54.686Z,102188.25
2023-04-30T04:31:56.385Z,102190.81
2023-04-30T04:34:58.044Z,102195.22
2023-04-30T04:38:00.667Z,102192.53
2023-04-30T04:41:02.242Z,102198.63
2023-04-30T04:44:04.651Z,102204.66
2023-04-30T04:47:06.253Z,102200.19
2023-04-30T04:50:08.308Z,102205.34
2023-04-30T04:53:09.985Z,102207.03
2023-04-30T04:56:11.733Z,102219.22
2023-04-30T04:59:13.557Z,102217.34
2023-04-30T05:02:15.161Z,102223.34
2023-04-30T05:05:16.821Z,102225.81
2023-04-30T05:08:18.941Z,102229.16
2023-04-30T05:11:22.286Z,102235.09
2023-04-30T05:14:23.826Z,102235.81
2023-04-30T05:17:25.620Z,102240.00
2023-04-30T05:20:27.452Z,102239.78
2023-04-30T05:23:29.035Z,102242.28
2023-04-30T05:26:30.791Z,102253.47
2023-04-30T05:29:32.357Z,102246.28
2023-04-30T05:32:34.442Z,102251.34
2023-04-30T05:35:36.324Z,102258.13
2023-04-30T05:38:37.965Z,102255.22
2023-04-30T05:41:39.556Z,102253.22
2023-04-30T05:44:41.651Z,102259.97
2023-04-30T05:47:43.336Z,102257.03
2023-04-30T05:50:44.974Z,102256.69
2023-04-30T05:53:46.510Z,102259.91
2023-04-30T05:56:48.947Z,102261.38
2023-04-30T05:59:51.265Z,102267.25
2023-04-30T06:02:53.232Z,102267.81
2023-04-30T06:05:54.876Z,102261.34
2023-04-30T06:08:56.410Z,102272.41
2023-04-30T06:11:58.023Z,102261.50
2023-04-30T06:14:59.671Z,102264.63
2023-04-30T06:18:01.336Z,102271.88
2023-04-30T06:21:03.182Z,102256.41
2023-04-30T06:24:05.339Z,102264.81
2023-04-30T06:27:06.880Z,102275.00
2023-04-30T06:30:09.080Z,102278.13
2023-04-30T06:33:10.872Z,102273.38
2023-04-30T06:36:12.458Z,102273.88
2023-04-30T06:39:17.180Z,102274.34
2023-04-30T06:42:18.709Z,102275.81
2023-04-30T06:45:20.950Z,102279.91
2023-04-30T06:48:23.048Z,102280.53
2023-04-30T06:51:24.623Z,102273.22
2023-04-30T06:54:27.755Z,102269.47
2023-04-30T06:57:29.300Z,102272.97
2023-04-30T07:00:31.028Z,102272.81
2023-04-30T07:03:33.798Z,102280.53
2023-04-30T07:06:35.444Z,102284.78
2023-04-30T07:09:37.026Z,102282.69
2023-04-30T07:12:38.635Z,102285.72
2023-04-30T07:15:41.033Z,102277.38
2023-04-30T07:18:43.094Z,102277.09
2023-04-30T07:21:44.699Z,102279.34
2023-04-30T07:24:46.310Z,102271.75
2023-04-30T07:27:47.940Z,102279.22
2023-04-30T07:30:49.544Z,102280.34
2023-04-30T07:33:51.397Z,102283.78
2023-04-30T07:36:52.944Z,102288.38
2023-04-30T07:39:54.774Z,102293.19
2023-04-30T07:42:56.440Z,102282.94
2023-04-30T07:45:58.074Z,102289.63
2023-04-30T07:48:59.662Z,102279.53
2023-04-30T07:52:01.554Z,102282.03
2023-04-30T07:55:03.533Z,102283.84
2023-04-30T07:58:05.125Z,102280.97
2023-04-30T08:01:06.770Z,102284.94
2023-04-30T08:04:09.555Z,102278.53
2023-04-30T08:07:11.210Z,102294.53
2023-04-30T08:10:12.969Z,102287.41
2023-04-30T08:13:14.588Z,102285.38
2023-04-30T08:16:17.105Z,102283.59
2023-04-30T08:19:19.303Z,102288.06
2023-04-30T08:22:21.075Z,102292.38
2023-04-30T08:25:23.339Z,102293.59
2023-04-30T08:28:25.817Z,102297.41
2023-04-30T08:31:27.722Z,102296.66
2023-04-30T08:34:29.418Z,102300.41
2023-04-30T08:37:32.514Z,102298.63
2023-04-30T08:40:50.210Z,102301.16
2023-04-30T08:43:54.479Z,102307.06
2023-04-30T08:46:58.385Z,102306.75
2023-04-30T08:50:00.497Z,102307.16
2023-04-30T08:53:03.486Z,102300.25
2023-04-30T08:56:05.932Z,102307.31
2023-04-30T08:59:07.889Z,102303.28
2023-04-30T09:02:10.723Z,102308.47
2023-04-30T09:05:14.868Z,102291.50
2023-04-30T09:08:20.444Z,102293.97
2023-04-30T09:11:29.106Z,102301.81
2023-04-30T09:14:32.511Z,102299.66
2023-04-30T09:17:34.422Z,102297.28
2023-04-30T09:20:36.443Z,102300.13
2023-04-30T09:23:54.474Z,102300.47
2023-04-30T09:26:56.154Z,102304.25
2023-04-30T09:29:57.751Z,102294.59
2023-04-30T09:32:59.430Z,102286.00
2023-04-30T09:36:12.661Z,102283.81
2023-04-30T09:39:17.441Z,102287.41
2023-04-30T09:42:19.766Z,102291.56
2023-04-30T09:45:21.342Z,102290.19
2023-04-30T09:48:24.239Z,102288.50
2023-04-30T09:51:27.049Z,102285.81
2023-04-30T09:54:31.166Z,102285.56
2023-04-30T09:57:36.295Z,102275.22
2023-04-30T10:00:39.670Z,102277.31
2023-04-30T10:03:43.052Z,102271.69
2023-04-30T10:06:45.050Z,102266.69
2023-04-30T10:09:58.921Z,102267.38
2023-04-30T10:13:07.531Z,102252.94
2023-04-30T10:16:18.834Z,102253.91
2023-04-30T10:19:24.387Z,102254.31
2023-04-30T10:22:26.306Z,102248.97
2023-04-30T10:25:28.979Z,102260.81
2023-04-30T10:28:32.420Z,102245.03
2023-04-30T10:31:35.978Z,102249.16
2023-04-30T10:35:00.284Z,102250.34
2023-04-30T10:38:15.593Z,102250.34
2023-04-30T10:41:20.236Z,102245.84
2023-04-30T10:44:22.876Z,102243.34
2023-04-30T10:47:30.079Z,102241.03
2023-04-30T10:50:31.888Z,102248.72
2023-04-30T10:53:37.100Z,102237.19
2023-04-30T10:56:38.794Z,102237.72
2023-04-30T11:00:04.851Z,102232.00
2023-04-30T11:03:07.549Z,102244.00
2023-04-30T11:06:21.782Z,102227.69
2023-04-30T11:09:36.596Z,102224.09
2023-04-30T11:12:41.586Z,102224.56
2023-04-30T11:15:46.026Z,102227.19
2023-04-30T11:18:47.841Z,102219.81
2023-04-30T11:22:04.445Z,102217.41
2023-04-30T11:25:09.511Z,102218.47
2023-04-30T11:28:18.898Z,102212.84
2023-04-30T11:31:21.178Z,102209.16
2023-04-30T11:34:23.867Z,102210.88
2023-04-30T11:37:34.366Z,102206.56
2023-04-30T11:40:36.771Z,102205.50
2023-04-30T11:43:38.302Z,102205.25
2023-04-30T11:46:42.220Z,102201.13
2023-04-30T11:49:43.959Z,102195.00
2023-04-30T11:52:52.895Z,102194.63
2023-04-30T11:55:56.124Z,102181.97
2023-04-30T11:58:57.741Z,102192.03
2023-04-30T12:01:59.490Z,102194.41
2023-04-30T12:05:01.145Z,102187.63
2023-04-30T12:08:07.925Z,102176.97
2023-04-30T12:11:25.326Z,102172.59
2023-04-30T12:14:27.092Z,102169.16
2023-04-30T12:17:35.793Z,102175.63
2023-04-30T12:20:38.196Z,102168.91
2023-04-30T12:23:39.841Z,102172.06
2023-04-30T12:26:42.326Z,102164.78
2023-04-30T12:29:49.081Z,102168.41
2023-04-30T12:32:53.258Z,102163.22
2023-04-30T12:35:58.247Z,102164.84
2023-04-30T12:39:05.700Z,102153.53
2023-04-30T12:42:08.291Z,102160.31
2023-04-30T12:45:11.148Z,102152.59
2023-04-30T12:48:14.913Z,102154.72
2023-04-30T12:51:20.165Z,102153.66
2023-04-30T12:54:26.739Z,102152.06
2023-04-30T12:57:29.053Z,102144.03
2023-04-30T13:00:42.855Z,102149.69
2023-04-30T13:03:44.628Z,102141.09
2023-04-30T13:06:46.469Z,102137.78
2023-04-30T13:09:48.135Z,102140.22
2023-04-30T13:12:49.691Z,102141.75
2023-04-30T13:15:51.292Z,102137.00
2023-04-30T13:18:53.026Z,102133.66
2023-04-30T13:21:55.751Z,102131.28
2023-04-30T13:24:57.877Z,102128.16
2023-04-30T13:28:00.302Z,102119.50
2023-04-30T13:31:02.903Z,102119.66
2023-04-30T13:34:04.675Z,102116.44
2023-04-30T13:37:07.158Z,102107.47
2023-04-30T13:40:09.348Z,102098.72
2023-04-30T13:43:10.895Z,102091.47
2023-04-30T13:46:12.576Z,102087.56
2023-04-30T13:49:14.166Z,102081.81
2023-04-30T13:52:15.749Z,102077.78
2023-04-30T13:55:17.425Z,102070.72
2023-04-30T13:58:19.543Z,102080.00
2023-04-30T14:01:21.168Z,102075.63
2023-04-30T14:04:22.726Z,102072.66
2023-04-30T14:07:24.663Z,102075.06
2023-04-30T14:10:26.260Z,102072.75
2023-04-30T14:13:27.821Z,102061.22
2023-04-30T14:16:30.444Z,102068.72
2023-04-30T14:19:32.625Z,102065.94
2023-04-30T14:22:38.300Z,102067.19
2023-04-30T14:25:39.901Z,102059.34
2023-04-30T14:28:41.471Z,102058.34
2023-04-30T14:31:43.092Z,102049.50
2023-04-30T14:34:44.856Z,102046.94
2023-04-30T14:37:46.525Z,102039.31
2023-04-30T14:40:48.071Z,102034.06
2023-04-30T14:43:49.735Z,102031.91
2023-04-30T14:46:51.757Z,102028.66
2023-04-30T14:49:54.341Z,102031.44
2023-04-30T14:52:57.122Z,102027.06
2023-04-30T14:55:59.588Z,102020.81
2023-04-30T14:59:02.049Z,102022.09
2023-04-30T15:02:04.829Z,102011.66
2023-04-30T15:05:08.063Z,102006.41
2023-04-30T15:08:11.199Z,102008.34
2023-04-30T15:11:15.191Z,102011.41
2023-04-30T15:14:18.372Z,101999.28
2023-04-30T15:17:20.736Z,101999.94
2023-04-30T15:20:23.045Z,101993.81
2023-04-30T15:23:25.494Z,101999.34
2023-04-30T15:26:29.075Z,101996.59
2023-04-30T15:29:30.964Z,101991.47
2023-04-30T15:32:32.753Z,101986.66
2023-04-30T15:35:35.206Z,101988.50
2023-04-30T15:38:38.388Z,101992.69
2023-04-30T15:41:40.048Z,101982.84
2023-04-30T15:44:42.373Z,101972.84
2023-04-30T15:47:44.183Z,101974.03
2023-04-30T15:50:45.772Z,101980.50
2023-04-30T15:53:47.282Z,101978.06
2023-04-30T15:56:48.894Z,101976.34
2023-04-30T15:59:50.758Z,101971.84
2023-04-30T16:02:52.352Z,101976.47
2023-04-30T16:05:54.708Z,101969.38
2023-04-30T16:08:56.375Z,101978.06
2023-04-30T16:11:58.908Z,101977.00
2023-04-30T16:15:00.486Z,101976.03
2023-04-30T16:18:02.109Z,101963.16
2023-04-30T16:21:05.560Z,101965.50
2023-04-30T16:24:08.811Z,101958.88
2023-04-30T16:27:10.411Z,101964.13
2023-04-30T16:30:12.262Z,101961.66
2023-04-30T16:33:13.878Z,101966.91
2023-04-30T16:36:15.528Z,101956.59
2023-04-30T16:39:17.616Z,101960.09
2023-04-30T16:42:19.221Z,101953.25
2023-04-30T16:45:20.843Z,101958.94
2023-04-30T16:48:22.378Z,101950.09
2023-04-30T16:51:23.938Z,101953.19
2023-04-30T16:54:25.908Z,101951.88
2023-04-30T16:57:28.329Z,101950.94
2023-04-30T17:00:30.966Z,101954.34
2023-04-30T17:03:35.381Z,101940.28
2023-04-30T17:06:38.759Z,101936.78
2023-04-30T17:09:41.702Z,101936.72
2023-04-30T17:12:44.788Z,101937.78
2023-04-30T17:15:47.593Z,101933.41
2023-04-30T17:18:50.201Z,101930.81
2023-04-30T17:21:52.970Z,101929.75
2023-04-30T17:24:57.249Z,101940.16
2023-04-30T17:28:02.101Z,101930.41
2023-04-30T17:31:07.407Z,101933.09
2023-04-30T17:34:10.268Z,101936.84
2023-04-30T17:37:13.532Z,101941.44
2023-04-30T17:40:16.478Z,101942.59
2023-04-30T17:43:19.600Z,101936.59
2023-04-30T17:46:22.849Z,101952.09
2023-04-30T17:49:26.081Z,101948.19
2023-04-30T17:52:27.657Z,101946.41
2023-04-30T17:55:29.597Z,101942.78
2023-04-30T17:58:31.483Z,101932.94
2023-04-30T18:01:33.763Z,101939.03
2023-04-30T18:04:35.914Z,101941.53
2023-04-30T18:07:38.790Z,101935.97
2023-04-30T18:10:40.565Z,101926.91
2023-04-30T18:13:43.544Z,101933.88
2023-04-30T18:16:45.310Z,101930.13
2023-04-30T18:19:48.738Z,101928.09
2023-04-30T18:22:50.362Z,101918.81
2023-04-30T18:25:51.906Z,101922.88
2023-04-30T18:28:53.506Z,101935.81
2023-04-30T18:31:57.390Z,101930.06
2023-04-30T18:34:59.017Z,101922.50
2023-04-30T18:38:01.781Z,101927.41
2023-04-30T18:41:03.418Z,101927.25
2023-04-30T18:44:05.784Z,101927.91
2023-04-30T18:47:07.562Z,101916.00
2023-04-30T18:50:13.534Z,101921.94
2023-04-30T18:53:15.607Z,101923.41
2023-04-30T18:56:17.173Z,101918.59
2023-04-30T18:59:19.317Z,101922.88
2023-04-30T19:02:21.992Z,101923.41
2023-04-30T19:05:23.937Z,101927.69
2023-04-30T19:08:26.307Z,101924.78
2023-04-30T19:11:28.750Z,101928.84
2023-04-30T19:14:30.595Z,101924.94
2023-04-30T19:17:32.822Z,101925.44
2023-04-30T19:20:35.781Z,101927.56
2023-04-30T19:23:39.250Z,101927.97
2023-04-30T19:26:42.674Z,101937.16
2023-04-30T19:29:46.006Z,101940.22
2023-04-30T19:32:47.856Z,101933.56
2023-04-30T19:35:53.232Z,101938.28
2023-04-30T19:38:55.815Z,101949.88
2023-04-30T19:41:57.967Z,101940.22
2023-04-30T19:44:59.471Z,101947.41
2023-04-30T19:48:01.066Z,101944.94
2023-04-30T19:51:04.780Z,101948.84
2023-04-30T19:54:09.897Z,101943.22
2023-04-30T19:57:11.648Z,101948.22
2023-04-30T20:00:13.633Z,101938.03
2023-04-30T20:03:17.226Z,101940.06
2023-04-30T20:06:20.497Z,101940.63
2023-04-30T20:09:22.100Z,101933.00
2023-04-30T20:12:23.712Z,101934.16
2023-04-30T20:15:26.032Z,101932.59
2023-04-30T20:18:27.663Z,101929.28
2023-04-30T20:21:29.466Z,101922.38
2023-04-30T20:24:31.037Z,101929.56
2023-04-30T20:27:34.205Z,101929.81
2023-04-30T20:30:36.185Z,101923.97
2023-04-30T20:33:37.966Z,101920.66
2023-04-30T20:36:41.133Z,101929.88
2023-04-30T20:39:44.354Z,101930.88
2023-04-30T20:42:47.336Z,101924.69
2023-04-30T20:45:48.982Z,101928.44
2023-04-30T20:48:51.641Z,101922.59
2023-04-30T20:51:53.465Z,101922.03
2023-04-30T20:54:55.154Z,101924.97
2023-04-30T20:57:58.230Z,101914.69
2023-04-30T21:00:59.886Z,101907.03
2023-04-30T21:04:02.299Z,101902.16
2023-04-30T21:07:03.946Z,101905.25
2023-04-30T21:10:06.420Z,101902.81
2023-04-30T21:13:09.032Z,101905.59
2023-04-30T21:16:10.562Z,101897.13
2023-04-30T21:19:12.232Z,101895.63
2023-04-30T21:22:13.856Z,101889.88
2023-04-30T21:25:16.107Z,101892.94
2023-04-30T21:28:17.648Z,101883.50
2023-04-30T21:31:19.366Z,101875.06
2023-04-30T21:34:20.966Z,101881.56
2023-04-30T21:37:22.524Z,101879.19
2023-04-30T21:40:24.127Z,101884.16
2023-04-30T21:43:26.023Z,101878.41
2023-04-30T21:46:27.645Z,101875.38
2023-04-30T21:49:29.281Z,101866.97
2023-04-30T21:52:31.193Z,101871.75
2023-04-30T21:55:32.974Z,101867.59
2023-04-30T21:58:35.479Z,101865.09
2023-04-30T22:01:37.508Z,101857.25
2023-04-30T22:04:39.020Z,101855.78
2023-04-30T22:07:41.297Z,101860.22
2023-04-30T22:10:43.285Z,101855.97
2023-04-30T22:13:44.881Z,101846.59
2023-04-30T22:16:46.464Z,101847.22
2023-04-30T22:19:48.060Z,101849.31
2023-04-30T22:22:49.627Z,101841.84
2023-04-30T22:25:51.673Z,101839.25
2023-04-30T22:28:53.246Z,101836.91
2023-04-30T22:31:55.082Z,101829.44
2023-04-30T22:34:56.980Z,101828.13
2023-04-30T22:37:59.323Z,101836.50
2023-04-30T22:41:01.137Z,101825.25
2023-04-30T22:44:02.996Z,101823.78
2023-04-30T22:47:04.968Z,101826.59
2023-04-30T22:50:08.343Z,101817.97
2023-04-30T22:53:10.375Z,101816.28
2023-04-30T22:56:12.174Z,101817.34
2023-04-30T22:59:13.754Z,101808.59
2023-04-30T23:02:15.579Z,101804.28
2023-04-30T23:05:17.368Z,101810.59
2023-04-30T23:08:19.241Z,101799.47
2023-04-30T23:11:21.085Z,101807.59
2023-04-30T23:14:22.789Z,101798.06
2023-04-30T23:17:24.374Z,101799.13
2023-04-30T23:20:26.072Z,101798.31
2023-04-30T23:23:28.120Z,101788.72
2023-04-30T23:26:30.220Z,101793.13
2023-04-30T23:29:32.233Z,101785.28
2023-04-30T23:32:34.122Z,101784.50
2023-04-30T23:35:35.722Z,101782.91
2023-04-30T23:38:37.507Z,101772.50
2023-04-30T23:41:39.065Z,101769.97
2023-04-30T23:44:40.751Z,101768.28
2023-04-30T23:47:42.347Z,101764.03
2023-04-30T23:50:43.877Z,101763.28
2023-04-30T23:53:45.759Z,101762.41
2023-04-30T23:56:47.276Z,101758.16
2023-04-30T23:59:48.849Z,101750.31
